createdAt,value
2023-05-15T00:00:40.407Z,14.45
2023-05-15T00:02:04.875Z,14.45
2023-05-15T00:03:26.842Z,14.44
2023-05-15T00:04:51.254Z,14.44
2023-05-15T00:06:12.829Z,14.45
2023-05-15T00:07:34.937Z,14.46
2023-05-15T00:09:08.615Z,14.46
2023-05-15T00:10:30.675Z,14.47
2023-05-15T00:11:52.503Z,14.47
2023-05-15T00:13:16.777Z,14.47
2023-05-15T00:14:38.760Z,14.47
2023-05-15T00:16:00.812Z,14.47
2023-05-15T00:17:22.801Z,14.47
2023-05-15T00:18:44.972Z,14.47
2023-05-15T00:20:07.644Z,14.47
2023-05-15T00:21:29.860Z,14.46
2023-05-15T00:22:51.853Z,14.46
2023-05-15T00:24:13.801Z,14.45
2023-05-15T00:25:35.476Z,14.43
2023-05-15T00:26:59.581Z,14.43
2023-05-15T00:28:21.335Z,14.41
2023-05-15T00:29:43.897Z,14.38
2023-05-15T00:31:06.163Z,14.37
2023-05-15T00:32:27.707Z,14.36
2023-05-15T00:33:49.756Z,14.34
2023-05-15T00:35:18.628Z,14.32
2023-05-15T00:36:52.642Z,14.30
2023-05-15T00:38:39.522Z,14.28
2023-05-15T00:40:12.994Z,14.25
2023-05-15T00:42:00.639Z,14.24
2023-05-15T00:43:48.317Z,14.23
2023-05-15T00:45:28.961Z,14.21
2023-05-15T00:47:15.235Z,14.19
2023-05-15T00:48:49.837Z,14.16
2023-05-15T00:50:24.633Z,14.13
2023-05-15T00:52:10.759Z,14.12
2023-05-15T00:53:55.126Z,14.09
2023-05-15T00:55:31.216Z,14.06
2023-05-15T00:57:04.505Z,14.05
2023-05-15T00:58:38.113Z,14.02
2023-05-15T01:00:25.179Z,14.00
2023-05-15T01:02:06.718Z,14.22
2023-05-15T01:03:40.838Z,15.39
2023-05-15T01:05:17.585Z,16.59
2023-05-15T01:07:11.029Z,17.38
2023-05-15T01:08:44.614Z,17.14
2023-05-15T01:10:25.327Z,16.66
2023-05-15T01:11:47.404Z,16.28
2023-05-15T01:13:20.662Z,15.96
2023-05-15T01:14:54.838Z,15.70
2023-05-15T01:16:28.449Z,15.50
2023-05-15T01:18:09.855Z,15.32
2023-05-15T01:19:46.100Z,15.16
2023-05-15T01:21:31.724Z,15.02
2023-05-15T01:22:53.837Z,14.89
2023-05-15T01:24:15.273Z,14.86
2023-05-15T01:25:49.137Z,15.55
2023-05-15T01:27:34.139Z,16.76
2023-05-15T01:29:07.976Z,17.78
2023-05-15T01:30:41.670Z,17.71
2023-05-15T01:32:37.098Z,17.26
2023-05-15T01:34:22.588Z,16.71
2023-05-15T01:36:17.093Z,16.30
2023-05-15T01:37:57.970Z,15.95
2023-05-15T01:39:39.642Z,15.71
2023-05-15T01:41:20.110Z,15.52
2023-05-15T01:42:53.763Z,16.31
2023-05-15T01:44:30.031Z,17.44
2023-05-15T01:45:56.083Z,18.37
2023-05-15T01:47:42.369Z,18.53
2023-05-15T01:49:29.304Z,17.93
2023-05-15T01:51:10.682Z,17.26
2023-05-15T01:52:53.477Z,16.72
2023-05-15T01:54:22.906Z,16.28
2023-05-15T01:55:59.741Z,15.95
2023-05-15T01:57:36.157Z,15.66
2023-05-15T01:59:19.173Z,15.59
2023-05-15T02:01:11.546Z,16.57
2023-05-15T02:02:44.971Z,17.82
2023-05-15T02:04:07.171Z,18.53
2023-05-15T02:05:52.418Z,18.29
2023-05-15T02:07:38.358Z,17.65
2023-05-15T02:09:19.607Z,17.10
2023-05-15T02:11:00.480Z,16.58
2023-05-15T02:12:46.103Z,16.16
2023-05-15T02:14:22.129Z,15.82
2023-05-15T02:16:03.671Z,15.57
2023-05-15T02:17:39.726Z,16.16
2023-05-15T02:19:02.020Z,17.25
2023-05-15T02:20:43.777Z,18.20
2023-05-15T02:22:10.788Z,18.27
2023-05-15T02:23:41.705Z,17.75
2023-05-15T02:25:16.230Z,17.12
2023-05-15T02:27:01.640Z,16.57
2023-05-15T02:28:48.389Z,16.05
2023-05-15T02:30:33.896Z,15.62
2023-05-15T02:31:56.316Z,15.34
2023-05-15T02:33:41.477Z,15.83
2023-05-15T02:35:15.181Z,16.90
2023-05-15T02:36:39.422Z,17.89
2023-05-15T02:38:12.930Z,18.03
2023-05-15T02:39:53.970Z,17.55
2023-05-15T02:41:31.077Z,16.85
2023-05-15T02:43:07.229Z,16.29
2023-05-15T02:44:44.242Z,15.80
2023-05-15T02:46:18.227Z,15.46
2023-05-15T02:47:52.246Z,15.15
2023-05-15T02:49:16.157Z,15.58
2023-05-15T02:50:53.147Z,16.51
2023-05-15T02:52:26.750Z,17.65
2023-05-15T02:54:17.738Z,17.99
2023-05-15T02:56:03.450Z,17.42
2023-05-15T02:57:48.821Z,16.70
2023-05-15T02:59:25.347Z,16.12
2023-05-15T03:01:00.847Z,15.61
2023-05-15T03:02:47.901Z,15.26
2023-05-15T03:04:21.845Z,15.68
2023-05-15T03:06:07.973Z,16.74
2023-05-15T03:07:49.345Z,17.82
2023-05-15T03:09:41.742Z,18.03
2023-05-15T03:11:27.364Z,17.38
2023-05-15T03:12:52.550Z,16.76
2023-05-15T03:14:25.895Z,16.23
2023-05-15T03:16:10.386Z,15.83
2023-05-15T03:17:55.772Z,15.49
2023-05-15T03:19:41.515Z,16.18
2023-05-15T03:21:28.411Z,17.38
2023-05-15T03:23:02.385Z,18.32
2023-05-15T03:24:48.735Z,18.34
2023-05-15T03:26:40.083Z,17.69
2023-05-15T03:28:07.009Z,17.02
2023-05-15T03:29:52.187Z,16.49
2023-05-15T03:31:46.106Z,16.04
2023-05-15T03:33:32.020Z,16.53
2023-05-15T03:35:17.267Z,17.67
2023-05-15T03:37:03.134Z,18.72
2023-05-15T03:38:58.084Z,18.77
2023-05-15T03:40:45.011Z,17.98
2023-05-15T03:42:26.643Z,17.31
2023-05-15T03:44:03.093Z,16.71
2023-05-15T03:45:36.425Z,16.36
2023-05-15T03:47:10.524Z,16.75
2023-05-15T03:48:58.141Z,17.84
2023-05-15T03:50:34.026Z,18.79
2023-05-15T03:52:19.314Z,18.95
2023-05-15T03:54:05.174Z,18.26
2023-05-15T03:55:39.291Z,17.49
2023-05-15T03:57:01.782Z,16.98
2023-05-15T03:58:47.289Z,16.49
2023-05-15T04:00:41.094Z,16.67
2023-05-15T04:02:15.042Z,17.66
2023-05-15T04:03:37.013Z,18.62
2023-05-15T04:05:30.790Z,19.15
2023-05-15T04:07:16.320Z,18.67
2023-05-15T04:09:05.746Z,17.83
2023-05-15T04:10:52.476Z,17.13
2023-05-15T04:12:34.627Z,16.64
2023-05-15T04:14:24.047Z,17.10
2023-05-15T04:16:11.507Z,18.25
2023-05-15T04:17:57.788Z,19.19
2023-05-15T04:19:46.623Z,19.15
2023-05-15T04:21:24.362Z,18.33
2023-05-15T04:23:11.006Z,17.62
2023-05-15T04:24:56.514Z,16.97
2023-05-15T04:26:38.689Z,16.63
2023-05-15T04:28:22.812Z,17.34
2023-05-15T04:30:03.773Z,18.53
2023-05-15T04:31:39.349Z,19.34
2023-05-15T04:33:28.435Z,19.33
2023-05-15T04:35:02.407Z,18.55
2023-05-15T04:36:23.781Z,17.90
2023-05-15T04:38:17.542Z,17.31
2023-05-15T04:39:51.010Z,16.85
2023-05-15T04:41:36.045Z,17.41
2023-05-15T04:43:11.280Z,18.40
2023-05-15T04:44:44.836Z,19.30
2023-05-15T04:46:32.825Z,19.63
2023-05-15T04:48:18.208Z,18.97
2023-05-15T04:49:51.808Z,18.19
2023-05-15T04:51:25.563Z,17.52
2023-05-15T04:53:12.026Z,16.93
2023-05-15T04:54:58.063Z,17.26
2023-05-15T04:56:30.516Z,18.27
2023-05-15T04:58:22.363Z,19.19
2023-05-15T04:59:58.949Z,19.56
2023-05-15T05:01:33.472Z,19.01
2023-05-15T05:03:07.529Z,18.35
2023-05-15T05:04:32.220Z,17.63
2023-05-15T05:06:18.697Z,17.00
2023-05-15T05:07:52.379Z,16.78
2023-05-15T05:09:14.368Z,17.46
2023-05-15T05:10:38.538Z,18.30
2023-05-15T05:12:14.447Z,19.12
2023-05-15T05:14:08.385Z,19.28
2023-05-15T05:15:42.140Z,18.50
2023-05-15T05:17:15.817Z,17.72
2023-05-15T05:19:01.916Z,17.05
2023-05-15T05:20:35.570Z,16.49
2023-05-15T05:22:05.200Z,16.38
2023-05-15T05:23:41.467Z,17.20
2023-05-15T05:25:13.557Z,18.07
2023-05-15T05:26:59.249Z,18.91
2023-05-15T05:28:45.868Z,18.79
2023-05-15T05:30:39.570Z,17.99
2023-05-15T05:32:32.982Z,17.18
2023-05-15T05:34:18.865Z,16.51
2023-05-15T05:35:52.801Z,16.45
2023-05-15T05:37:38.863Z,17.26
2023-05-15T05:39:24.143Z,18.22
2023-05-15T05:41:18.048Z,18.96
2023-05-15T05:42:49.514Z,18.47
2023-05-15T05:44:34.466Z,17.72
2023-05-15T05:46:29.203Z,16.97
2023-05-15T05:48:06.414Z,16.29
2023-05-15T05:49:51.549Z,16.45
2023-05-15T05:51:44.918Z,17.44
2023-05-15T05:53:29.495Z,18.45
2023-05-15T05:55:03.763Z,18.92
2023-05-15T05:56:39.050Z,18.48
2023-05-15T05:58:32.634Z,17.64
2023-05-15T06:00:21.567Z,16.85
2023-05-15T06:02:07.194Z,16.28
2023-05-15T06:03:32.115Z,16.63
2023-05-15T06:04:57.248Z,17.43
2023-05-15T06:06:42.753Z,18.33
2023-05-15T06:08:36.005Z,18.87
2023-05-15T06:10:22.948Z,18.26
2023-05-15T06:12:09.646Z,17.40
2023-05-15T06:13:51.969Z,16.65
2023-05-15T06:15:25.437Z,16.49
2023-05-15T06:17:11.444Z,17.24
2023-05-15T06:18:45.941Z,18.15
2023-05-15T06:20:21.874Z,19.03
2023-05-15T06:21:55.470Z,19.14
2023-05-15T06:23:28.948Z,18.46
2023-05-15T06:25:22.617Z,17.71
2023-05-15T06:27:08.078Z,16.94
2023-05-15T06:28:44.117Z,16.77
2023-05-15T06:30:17.503Z,17.59
2023-05-15T06:31:51.439Z,18.51
2023-05-15T06:33:32.665Z,19.25
2023-05-15T06:34:59.322Z,19.35
2023-05-15T06:36:35.292Z,18.73
2023-05-15T06:38:20.792Z,17.99
2023-05-15T06:40:14.845Z,17.29
2023-05-15T06:41:48.197Z,16.92
2023-05-15T06:43:22.441Z,17.50
2023-05-15T06:44:56.242Z,18.46
2023-05-15T06:46:43.849Z,19.37
2023-05-15T06:48:29.108Z,19.58
2023-05-15T06:50:10.358Z,18.88
2023-05-15T06:51:43.803Z,18.06
2023-05-15T06:53:29.901Z,17.44
2023-05-15T06:55:03.442Z,17.00
2023-05-15T06:56:49.604Z,17.52
2023-05-15T06:58:43.094Z,18.57
2023-05-15T07:00:16.514Z,19.47
2023-05-15T07:01:58.838Z,19.37
2023-05-15T07:03:44.844Z,18.64
2023-05-15T07:05:31.189Z,17.79
2023-05-15T07:07:16.081Z,17.14
2023-05-15T07:08:52.630Z,16.99
2023-05-15T07:10:26.467Z,17.79
2023-05-15T07:12:11.851Z,18.74
2023-05-15T07:13:57.733Z,19.58
2023-05-15T07:15:43.150Z,19.65
2023-05-15T07:17:30.259Z,18.91
2023-05-15T07:19:04.178Z,18.02
2023-05-15T07:20:50.240Z,17.38
2023-05-15T07:22:55.145Z,17.13
2023-05-15T07:24:41.589Z,18.14
2023-05-15T07:26:23.640Z,19.05
2023-05-15T07:28:19.569Z,19.70
2023-05-15T07:29:52.830Z,19.27
2023-05-15T07:31:40.419Z,18.46
2023-05-15T07:33:28.265Z,17.62
2023-05-15T07:35:13.516Z,17.03
2023-05-15T07:36:49.564Z,17.42
2023-05-15T07:38:24.069Z,18.40
2023-05-15T07:40:09.963Z,19.33
2023-05-15T07:41:50.563Z,19.87
2023-05-15T07:43:24.239Z,19.47
2023-05-15T07:44:57.837Z,18.73
2023-05-15T07:46:31.305Z,17.97
2023-05-15T07:48:06.325Z,17.35
2023-05-15T07:49:47.152Z,17.17
2023-05-15T07:51:33.431Z,18.10
2023-05-15T07:53:28.139Z,19.13
2023-05-15T07:55:19.090Z,19.85
2023-05-15T07:56:55.538Z,19.47
2023-05-15T07:58:19.139Z,18.80
2023-05-15T07:59:41.050Z,18.12
2023-05-15T08:01:08.262Z,17.54
2023-05-15T08:02:37.963Z,17.10
2023-05-15T08:04:14.549Z,17.48
2023-05-15T08:05:43.668Z,18.29
2023-05-15T08:07:15.240Z,19.17
2023-05-15T08:08:36.970Z,19.66
2023-05-15T08:09:59.250Z,19.49
2023-05-15T08:11:22.967Z,18.88
2023-05-15T08:13:07.307Z,18.17
2023-05-15T08:14:31.590Z,17.41
2023-05-15T08:15:53.878Z,17.00
2023-05-15T08:17:16.029Z,17.29
2023-05-15T08:18:38.217Z,18.06
2023-05-15T08:20:00.657Z,18.89
2023-05-15T08:21:22.376Z,19.51
2023-05-15T08:22:44.371Z,19.70
2023-05-15T08:24:06.590Z,19.26
2023-05-15T08:25:28.160Z,18.59
2023-05-15T08:26:49.687Z,17.94
2023-05-15T08:28:11.880Z,17.38
2023-05-15T08:29:33.508Z,17.13
2023-05-15T08:30:55.450Z,17.59
2023-05-15T08:32:17.032Z,18.37
2023-05-15T08:33:38.986Z,19.10
2023-05-15T08:35:00.929Z,19.65
2023-05-15T08:36:23.158Z,19.68
2023-05-15T08:37:45.369Z,19.16
2023-05-15T08:39:09.168Z,18.47
2023-05-15T08:40:38.989Z,17.81
2023-05-15T08:42:02.067Z,17.26
2023-05-15T08:43:23.771Z,17.37
2023-05-15T08:44:45.560Z,18.02
2023-05-15T08:46:07.428Z,18.79
2023-05-15T08:47:32.378Z,19.42
2023-05-15T08:48:54.610Z,19.87
2023-05-15T08:50:16.121Z,19.68
2023-05-15T08:51:37.999Z,19.07
2023-05-15T08:53:01.714Z,18.37
2023-05-15T08:54:23.446Z,17.71
2023-05-15T08:55:45.690Z,17.27
2023-05-15T08:57:07.641Z,17.52
2023-05-15T08:58:32.092Z,18.24
2023-05-15T08:59:54.355Z,19.01
2023-05-15T09:01:15.826Z,19.60
2023-05-15T09:02:37.668Z,19.77
2023-05-15T09:04:00.095Z,19.32
2023-05-15T09:05:24.861Z,18.63
2023-05-15T09:06:47.071Z,17.95
2023-05-15T09:08:10.181Z,17.41
2023-05-15T09:09:32.162Z,17.44
2023-05-15T09:10:54.221Z,18.06
2023-05-15T09:12:15.800Z,18.82
2023-05-15T09:13:37.964Z,19.47
2023-05-15T09:14:59.993Z,19.95
2023-05-15T09:16:21.759Z,19.83
2023-05-15T09:17:43.585Z,19.25
2023-05-15T09:19:06.458Z,18.56
2023-05-15T09:20:28.381Z,17.91
2023-05-15T09:21:49.973Z,17.49
2023-05-15T09:23:11.779Z,17.76
2023-05-15T09:24:33.936Z,18.47
2023-05-15T09:25:57.267Z,19.21
2023-05-15T09:27:18.899Z,19.83
2023-05-15T09:28:40.934Z,20.17
2023-05-15T09:30:03.178Z,19.86
2023-05-15T09:31:25.081Z,19.22
2023-05-15T09:32:47.182Z,18.54
2023-05-15T09:34:10.199Z,17.91
2023-05-15T09:35:32.074Z,17.45
2023-05-15T09:36:54.050Z,17.67
2023-05-15T09:38:15.693Z,18.38
2023-05-15T09:39:37.495Z,19.14
2023-05-15T09:40:59.525Z,19.79
2023-05-15T09:42:21.464Z,20.19
2023-05-15T09:43:43.360Z,19.94
2023-05-15T09:45:05.544Z,19.33
2023-05-15T09:46:27.423Z,18.68
2023-05-15T09:47:49.321Z,18.06
2023-05-15T09:49:11.390Z,17.63
2023-05-15T09:50:33.619Z,17.84
2023-05-15T09:51:55.812Z,18.58
2023-05-15T09:53:21.450Z,19.31
2023-05-15T09:54:43.163Z,19.96
2023-05-15T09:56:05.331Z,20.24
2023-05-15T09:57:27.796Z,19.86
2023-05-15T09:58:49.262Z,19.23
2023-05-15T10:00:11.880Z,18.58
2023-05-15T10:01:33.833Z,18.00
2023-05-15T10:03:03.542Z,17.91
2023-05-15T10:04:25.303Z,18.59
2023-05-15T10:05:49.680Z,19.39
2023-05-15T10:07:14.165Z,20.07
2023-05-15T10:08:38.453Z,20.47
2023-05-15T10:10:00.595Z,20.20
2023-05-15T10:11:22.715Z,19.55
2023-05-15T10:12:44.964Z,18.88
2023-05-15T10:14:09.711Z,18.22
2023-05-15T10:15:33.796Z,17.74
2023-05-15T10:17:00.481Z,17.94
2023-05-15T10:18:22.236Z,18.71
2023-05-15T10:19:56.739Z,19.46
2023-05-15T10:21:22.889Z,20.22
2023-05-15T10:22:46.720Z,20.46
2023-05-15T10:24:08.630Z,20.04
2023-05-15T10:25:30.947Z,19.38
2023-05-15T10:27:04.749Z,18.72
2023-05-15T10:28:38.259Z,17.97
2023-05-15T10:30:00.249Z,17.90
2023-05-15T10:31:21.693Z,18.50
2023-05-15T10:32:43.615Z,19.26
2023-05-15T10:34:05.981Z,19.95
2023-05-15T10:35:28.177Z,20.49
2023-05-15T10:36:52.609Z,20.52
2023-05-15T10:38:17.190Z,19.95
2023-05-15T10:39:58.586Z,19.23
2023-05-15T10:41:20.987Z,18.52
2023-05-15T10:42:43.411Z,18.02
2023-05-15T10:44:05.414Z,18.22
2023-05-15T10:45:30.092Z,18.93
2023-05-15T10:46:51.612Z,19.68
2023-05-15T10:48:16.094Z,20.33
2023-05-15T10:49:42.553Z,20.80
2023-05-15T10:51:05.125Z,20.69
2023-05-15T10:52:29.208Z,20.10
2023-05-15T10:53:53.551Z,19.41
2023-05-15T10:55:15.459Z,18.77
2023-05-15T10:56:51.311Z,18.48
2023-05-15T10:58:14.424Z,19.00
2023-05-15T10:59:36.196Z,19.70
2023-05-15T11:00:58.350Z,20.35
2023-05-15T11:02:20.710Z,20.84
2023-05-15T11:03:49.429Z,20.86
2023-05-15T11:05:13.969Z,20.24
2023-05-15T11:06:36.139Z,19.54
2023-05-15T11:07:58.025Z,18.88
2023-05-15T11:09:19.645Z,18.35
2023-05-15T11:10:41.714Z,18.52
2023-05-15T11:12:03.587Z,19.19
2023-05-15T11:13:25.807Z,19.90
2023-05-15T11:14:47.769Z,20.50
2023-05-15T11:16:14.054Z,20.98
2023-05-15T11:17:36.418Z,21.05
2023-05-15T11:19:00.985Z,20.53
2023-05-15T11:20:22.980Z,19.82
2023-05-15T11:21:44.935Z,19.17
2023-05-15T11:23:14.208Z,18.60
2023-05-15T11:24:36.310Z,18.76
2023-05-15T11:26:13.179Z,19.43
2023-05-15T11:27:54.417Z,20.33
2023-05-15T11:29:30.481Z,21.00
2023-05-15T11:30:55.012Z,21.22
2023-05-15T11:32:16.599Z,20.79
2023-05-15T11:33:38.401Z,20.10
2023-05-15T11:35:01.090Z,19.39
2023-05-15T11:36:22.224Z,18.76
2023-05-15T11:37:43.973Z,18.57
2023-05-15T11:39:17.239Z,19.05
2023-05-15T11:40:39.128Z,19.85
2023-05-15T11:42:01.182Z,20.47
2023-05-15T11:43:25.300Z,20.96
2023-05-15T11:44:49.055Z,21.26
2023-05-15T11:46:22.606Z,20.88
2023-05-15T11:47:45.412Z,20.21
2023-05-15T11:49:09.685Z,19.49
2023-05-15T11:50:33.570Z,18.92
2023-05-15T11:51:56.037Z,18.93
2023-05-15T11:53:18.082Z,19.54
2023-05-15T11:54:39.577Z,20.26
2023-05-15T11:56:01.237Z,20.89
2023-05-15T11:57:23.115Z,21.41
2023-05-15T11:58:44.893Z,21.79
2023-05-15T12:00:06.778Z,21.62
2023-05-15T12:01:29.565Z,21.05
2023-05-15T12:02:51.198Z,20.40
2023-05-15T12:04:13.800Z,19.80
2023-05-15T12:05:35.277Z,19.38
2023-05-15T12:06:57.026Z,19.63
2023-05-15T12:08:30.468Z,20.45
2023-05-15T12:09:55.434Z,21.15
2023-05-15T12:11:19.219Z,21.77
2023-05-15T12:12:41.358Z,21.95
2023-05-15T12:14:05.786Z,21.48
2023-05-15T12:15:27.138Z,20.82
2023-05-15T12:16:51.260Z,20.18
2023-05-15T12:18:13.732Z,19.56
2023-05-15T12:19:35.706Z,19.12
2023-05-15T12:21:04.920Z,19.33
2023-05-15T12:22:26.580Z,20.06
2023-05-15T12:23:59.530Z,20.75
2023-05-15T12:25:40.325Z,21.50
2023-05-15T12:27:02.097Z,21.70
2023-05-15T12:28:23.631Z,21.30
2023-05-15T12:29:45.896Z,20.64
2023-05-15T12:31:08.060Z,19.98
2023-05-15T12:32:29.612Z,19.42
2023-05-15T12:33:51.458Z,19.43
2023-05-15T12:35:13.552Z,20.02
2023-05-15T12:36:39.910Z,20.75
2023-05-15T12:38:09.744Z,21.38
2023-05-15T12:39:33.490Z,21.90
2023-05-15T12:41:02.783Z,21.82
2023-05-15T12:42:24.342Z,21.26
2023-05-15T12:43:46.425Z,20.58
2023-05-15T12:45:08.230Z,19.93
2023-05-15T12:46:34.505Z,19.37
2023-05-15T12:47:59.621Z,19.41
2023-05-15T12:49:23.225Z,20.03
2023-05-15T12:50:53.182Z,20.79
2023-05-15T12:52:14.851Z,21.38
2023-05-15T12:53:39.246Z,21.83
2023-05-15T12:55:01.436Z,21.85
2023-05-15T12:56:22.824Z,21.32
2023-05-15T12:57:44.596Z,20.66
2023-05-15T12:59:06.525Z,20.02
2023-05-15T13:00:28.603Z,19.60
2023-05-15T13:01:57.843Z,19.89
2023-05-15T13:03:31.663Z,20.63
2023-05-15T13:04:53.294Z,21.33
2023-05-15T13:06:15.188Z,21.81
2023-05-15T13:07:39.118Z,21.91
2023-05-15T13:09:03.309Z,21.41
2023-05-15T13:10:25.049Z,20.75
2023-05-15T13:11:47.265Z,20.10
2023-05-15T13:13:33.119Z,19.61
2023-05-15T13:14:56.705Z,19.95
2023-05-15T13:16:20.730Z,20.65
2023-05-15T13:17:42.797Z,21.29
2023-05-15T13:19:17.409Z,21.79
2023-05-15T13:20:39.556Z,21.85
2023-05-15T13:22:01.520Z,21.31
2023-05-15T13:23:25.898Z,20.61
2023-05-15T13:24:50.020Z,19.93
2023-05-15T13:26:13.981Z,19.38
2023-05-15T13:27:54.909Z,19.59
2023-05-15T13:29:16.745Z,20.36
2023-05-15T13:30:41.439Z,21.03
2023-05-15T13:32:11.000Z,21.64
2023-05-15T13:33:32.975Z,21.87
2023-05-15T13:34:58.059Z,21.50
2023-05-15T13:36:21.967Z,20.82
2023-05-15T13:37:43.751Z,20.17
2023-05-15T13:39:06.478Z,19.64
2023-05-15T13:40:28.282Z,19.72
2023-05-15T13:41:50.262Z,20.33
2023-05-15T13:43:25.840Z,21.09
2023-05-15T13:44:50.617Z,21.66
2023-05-15T13:46:26.367Z,22.06
2023-05-15T13:47:49.994Z,21.77
2023-05-15T13:49:11.978Z,21.15
2023-05-15T13:50:33.690Z,20.52
2023-05-15T13:51:55.264Z,19.96
2023-05-15T13:53:35.962Z,19.87
2023-05-15T13:54:57.882Z,20.53
2023-05-15T13:56:26.941Z,21.33
2023-05-15T13:57:48.622Z,21.98
2023-05-15T13:59:11.060Z,22.61
2023-05-15T14:00:32.761Z,23.14
2023-05-15T14:01:54.705Z,23.12
2023-05-15T14:03:16.767Z,22.72
2023-05-15T14:04:38.613Z,22.29
2023-05-15T14:06:00.637Z,21.98
2023-05-15T14:07:22.327Z,21.80
2023-05-15T14:08:44.220Z,21.75
2023-05-15T14:10:13.408Z,21.76
2023-05-15T14:11:39.750Z,21.78
2023-05-15T14:13:01.954Z,21.81
2023-05-15T14:14:23.353Z,21.86
2023-05-15T14:15:45.103Z,21.94
2023-05-15T14:17:09.447Z,21.93
2023-05-15T14:18:35.699Z,21.80
2023-05-15T14:19:59.528Z,21.77
2023-05-15T14:21:20.837Z,21.84
2023-05-15T14:22:43.573Z,21.95
2023-05-15T14:24:05.701Z,22.09
2023-05-15T14:25:27.177Z,22.26
2023-05-15T14:26:48.840Z,22.36
2023-05-15T14:28:12.948Z,22.31
2023-05-15T14:29:34.965Z,22.17
2023-05-15T14:30:59.116Z,21.95
2023-05-15T14:32:20.840Z,21.74
2023-05-15T14:33:54.641Z,21.58
2023-05-15T14:35:16.741Z,21.36
2023-05-15T14:36:38.392Z,21.20
2023-05-15T14:38:02.750Z,21.06
2023-05-15T14:39:31.538Z,20.96
2023-05-15T14:40:53.465Z,20.87
2023-05-15T14:42:17.070Z,20.76
2023-05-15T14:43:40.749Z,20.63
2023-05-15T14:45:03.007Z,20.50
2023-05-15T14:46:24.525Z,20.38
2023-05-15T14:47:48.516Z,20.27
2023-05-15T14:49:13.360Z,20.27
2023-05-15T14:50:35.192Z,20.36
2023-05-15T14:51:57.381Z,20.95
2023-05-15T14:53:19.257Z,22.11
2023-05-15T14:54:40.751Z,23.01
2023-05-15T14:56:05.070Z,23.19
2023-05-15T14:57:26.842Z,22.97
2023-05-15T14:58:49.055Z,22.63
2023-05-15T15:00:13.440Z,22.29
2023-05-15T15:01:37.467Z,22.03
2023-05-15T15:02:59.488Z,21.87
2023-05-15T15:04:29.174Z,21.77
2023-05-15T15:05:51.903Z,21.69
2023-05-15T15:07:16.152Z,21.66
2023-05-15T15:08:38.161Z,21.63
2023-05-15T15:10:00.416Z,21.63
2023-05-15T15:11:22.315Z,21.64
2023-05-15T15:12:46.452Z,21.63
2023-05-15T15:14:08.761Z,21.58
2023-05-15T15:15:30.606Z,21.48
2023-05-15T15:16:52.125Z,21.36
2023-05-15T15:18:14.213Z,21.23
2023-05-15T15:19:38.779Z,21.08
2023-05-15T15:21:00.775Z,20.90
2023-05-15T15:22:22.571Z,20.74
2023-05-15T15:23:49.078Z,20.58
2023-05-15T15:25:20.474Z,20.42
2023-05-15T15:26:42.032Z,20.26
2023-05-15T15:28:11.564Z,20.06
2023-05-15T15:29:33.354Z,19.88
2023-05-15T15:30:55.056Z,19.71
2023-05-15T15:32:23.910Z,19.53
2023-05-15T15:33:45.970Z,19.34
2023-05-15T15:35:10.080Z,19.18
2023-05-15T15:36:51.006Z,19.45
2023-05-15T15:38:13.328Z,20.58
2023-05-15T15:39:35.138Z,21.50
2023-05-15T15:40:57.004Z,21.78
2023-05-15T15:42:23.470Z,21.49
2023-05-15T15:43:45.402Z,21.03
2023-05-15T15:45:07.241Z,20.59
2023-05-15T15:46:28.870Z,20.21
2023-05-15T15:47:51.120Z,19.86
2023-05-15T15:49:15.894Z,19.56
2023-05-15T15:50:37.869Z,19.25
2023-05-15T15:52:04.557Z,18.98
2023-05-15T15:53:34.528Z,18.72
2023-05-15T15:54:56.557Z,18.79
2023-05-15T15:56:18.061Z,19.67
2023-05-15T15:57:39.551Z,20.64
2023-05-15T15:59:01.321Z,21.25
2023-05-15T16:00:25.402Z,21.15
2023-05-15T16:01:52.148Z,20.67
2023-05-15T16:03:14.647Z,20.16
2023-05-15T16:04:36.530Z,19.70
2023-05-15T16:05:59.917Z,19.30
2023-05-15T16:07:22.110Z,18.95
2023-05-15T16:08:43.793Z,18.71
2023-05-15T16:11:32.132Z,19.96
2023-05-15T16:12:56.969Z,20.82
2023-05-15T16:14:20.741Z,21.45
2023-05-15T16:15:47.044Z,21.44
2023-05-15T16:17:11.255Z,20.91
2023-05-15T16:18:32.985Z,20.29
2023-05-15T16:19:54.916Z,19.70
2023-05-15T16:21:16.768Z,19.20
2023-05-15T16:22:41.777Z,19.16
2023-05-15T16:24:03.821Z,19.74
2023-05-15T16:25:28.134Z,20.48
2023-05-15T16:26:52.199Z,21.14
2023-05-15T16:28:16.900Z,21.45
2023-05-15T16:29:41.299Z,21.11
2023-05-15T16:31:10.658Z,20.50
2023-05-15T16:32:33.961Z,19.85
2023-05-15T16:33:55.907Z,19.31
2023-05-15T16:35:19.867Z,19.03
2023-05-15T16:36:49.197Z,19.51
2023-05-15T16:38:13.683Z,20.26
2023-05-15T16:39:40.289Z,20.99
2023-05-15T16:41:16.995Z,21.46
2023-05-15T16:42:41.258Z,21.16
2023-05-15T16:44:13.086Z,20.55
2023-05-15T16:45:39.598Z,19.87
2023-05-15T16:47:05.903Z,19.32
2023-05-15T16:48:30.001Z,18.85
2023-05-15T16:50:03.777Z,18.40
2023-05-15T16:51:25.203Z,18.53
2023-05-15T16:52:48.131Z,19.27
2023-05-15T16:54:09.985Z,20.12
2023-05-15T16:55:43.557Z,20.75
2023-05-15T16:57:16.714Z,20.50
2023-05-15T16:58:38.071Z,19.95
2023-05-15T17:00:02.626Z,19.37
2023-05-15T17:01:24.178Z,18.87
2023-05-15T17:02:46.056Z,18.42
2023-05-15T17:04:11.344Z,18.02
2023-05-15T17:05:33.048Z,17.69
2023-05-15T17:06:54.637Z,17.77
2023-05-15T17:08:18.817Z,18.52
2023-05-15T17:09:43.060Z,19.40
2023-05-15T17:11:05.162Z,20.10
2023-05-15T17:12:26.904Z,20.14
2023-05-15T17:13:48.634Z,19.68
2023-05-15T17:15:18.112Z,19.11
2023-05-15T17:16:40.305Z,18.49
2023-05-15T17:18:02.206Z,17.98
2023-05-15T17:19:24.282Z,17.63
2023-05-15T17:20:45.954Z,17.88
2023-05-15T17:22:07.843Z,18.66
2023-05-15T17:23:29.588Z,19.45
2023-05-15T17:24:52.052Z,20.13
2023-05-15T17:26:35.353Z,20.41
2023-05-15T17:28:16.437Z,19.83
2023-05-15T17:29:38.337Z,19.14
2023-05-15T17:31:14.304Z,18.48
2023-05-15T17:32:59.711Z,18.04
2023-05-15T17:34:35.834Z,18.66
2023-05-15T17:36:30.160Z,19.56
2023-05-15T17:38:15.409Z,20.48
2023-05-15T17:40:00.634Z,20.61
2023-05-15T17:41:33.892Z,19.91
2023-05-15T17:42:58.216Z,19.24
2023-05-15T17:44:27.706Z,18.64
2023-05-15T17:46:03.584Z,18.17
2023-05-15T17:47:49.013Z,18.72
2023-05-15T17:49:34.281Z,19.66
2023-05-15T17:51:07.938Z,20.46
2023-05-15T17:52:41.504Z,20.80
2023-05-15T17:54:26.244Z,20.35
2023-05-15T17:56:11.528Z,19.50
2023-05-15T17:57:56.379Z,18.71
2023-05-15T17:59:43.892Z,18.31
2023-05-15T18:01:19.895Z,19.05
2023-05-15T18:03:14.194Z,19.89
2023-05-15T18:04:48.156Z,20.64
2023-05-15T18:06:21.387Z,20.80
2023-05-15T18:08:06.877Z,20.19
2023-05-15T18:09:42.604Z,19.43
2023-05-15T18:11:14.257Z,18.74
2023-05-15T18:12:57.107Z,18.36
2023-05-15T18:14:21.361Z,18.95
2023-05-15T18:15:45.511Z,19.68
2023-05-15T18:17:16.670Z,20.40
2023-05-15T18:19:01.437Z,20.81
2023-05-15T18:20:46.445Z,20.34
2023-05-15T18:22:31.178Z,19.48
2023-05-15T18:24:07.146Z,18.76
2023-05-15T18:25:28.703Z,18.27
2023-05-15T18:27:00.565Z,18.69
2023-05-15T18:28:34.012Z,19.43
2023-05-15T18:30:17.157Z,20.22
2023-05-15T18:32:02.281Z,20.79
2023-05-15T18:33:46.123Z,20.38
2023-05-15T18:35:30.419Z,19.59
2023-05-15T18:37:06.644Z,18.77
2023-05-15T18:38:39.789Z,18.27
2023-05-15T18:40:01.832Z,18.44
2023-05-15T18:41:46.825Z,19.26
2023-05-15T18:45:08.452Z,20.75
2023-05-15T18:46:31.707Z,20.46
2023-05-15T18:48:10.557Z,19.84
2023-05-15T18:49:52.084Z,18.98
2023-05-15T18:51:14.413Z,18.39
2023-05-15T18:52:47.894Z,18.22
2023-05-15T18:54:14.586Z,18.90
2023-05-15T18:55:48.021Z,19.66
2023-05-15T18:57:18.091Z,20.39
2023-05-15T18:58:51.839Z,20.69
2023-05-15T19:00:38.821Z,20.12
2023-05-15T19:02:15.008Z,19.25
2023-05-15T19:03:48.537Z,18.53
2023-05-15T19:05:33.589Z,17.93
2023-05-15T19:07:14.362Z,18.12
2023-05-15T19:08:59.230Z,19.07
2023-05-15T19:10:40.089Z,19.94
2023-05-15T19:12:06.364Z,20.38
2023-05-15T19:13:51.643Z,19.97
2023-05-15T19:15:25.286Z,19.11
2023-05-15T19:16:51.522Z,18.44
2023-05-15T19:18:36.951Z,17.77
2023-05-15T19:20:18.324Z,17.71
2023-05-15T19:21:51.742Z,18.43
2023-05-15T19:23:35.948Z,19.38
2023-05-15T19:25:16.649Z,20.06
2023-05-15T19:26:47.697Z,19.90
2023-05-15T19:28:21.277Z,19.28
2023-05-15T19:29:43.061Z,18.52
2023-05-15T19:31:14.022Z,17.88
2023-05-15T19:32:38.931Z,17.42
2023-05-15T19:34:00.815Z,17.73